Sea Thames — V2BV1 — position and weather

sailwx.info

Track history (hours):
 
Tides and Currents Weather Stations Pressure Air Temp Water Temp Dewpoint Dewpoint Depression Visibility Wind Speed Wind Dir Waves Ship Positions

Sea Thames

Last reported at 2017-Jun-22 20:36 UTC. Time now 2017-Jun-22 22:32 UTC.
Position N 55°11' W 005°56'.

Length 87 m; draft 4 m.

Type: Cargo ship. MMSI: 304933000.

Date/timePositionNaut miles runAvg speedWind from/ knotsBaromVisibWave heightAir tempDewpointWater temp
2017-Jun-22 20:36N 55°11' W 005°56'411.6
2017-Jun-22 20:17N 55°14' W 005°60'412.1
2017-Jun-22 19:59N 55°17' W 006°04'511.2
2017-Jun-22 19:30N 55°21' W 006°11'510.3
2017-Jun-22 19:01N 55°20' W 006°19'510.5
2017-Jun-22 18:30N 55°18' W 006°28'510.0
2017-Jun-22 18:00N 55°15' W 006°36'5 9.8
2017-Jun-22 17:30N 55°12' W 006°43'3 6.2
2017-Jun-22 17:00N 55°10' W 006°46'2 0.1
2017-Jun-21 05:50N 55°09' W 006°42'2 6.1
2017-Jun-21 05:30N 55°10' W 006°46'2 3.2
2017-Jun-21 05:00N 55°11' W 006°44'3 6.7
2017-Jun-21 04:31N 55°14' W 006°40'3 6.4
2017-Jun-21 04:00N 55°16' W 006°36'3 6.4
2017-Jun-21 03:30N 55°18' W 006°31'3 6.1
2017-Jun-21 03:00N 55°20' W 006°27'3 5.8
2017-Jun-21 02:30N 55°21' W 006°23'3 5.5
2017-Jun-21 01:59N 55°23' W 006°19'3 6.3
2017-Jun-21 01:30N 55°25' W 006°15'3 6.2
2017-Jun-21 01:00N 55°25' W 006°10'3 6.3
2017-Jun-21 00:30N 55°24' W 006°04'3 6.2
2017-Jun-21 00:00N 55°22' W 006°01'4 7.4
2017-Jun-20 23:29N 55°19' W 005°57'4 8.2
2017-Jun-20 22:59N 55°15' W 005°54'4 7.6
2017-Jun-20 22:29N 55°12' W 005°51'6 7.0
2017-Jun-20 21:39N 55°06' W 005°48'1 7.1
2017-Jun-20 21:30N 55°05' W 005°47'4 7.1
2017-Jun-20 21:00N 55°02' W 005°45'3 6.5
2017-Jun-20 20:30N 54°59' W 005°42'3 6.4
2017-Jun-20 20:00N 54°56' W 005°41'4 7.2
2017-Jun-20 19:30N 54°52' W 005°40'3 6.9
2017-Jun-20 19:00N 54°49' W 005°38'3 6.3
2017-Jun-20 18:30N 54°46' W 005°38'3 6.1
2017-Jun-20 18:00N 54°43' W 005°39'3 6.5
2017-Jun-20 17:30N 54°42' W 005°45'3 6.5
2017-Jun-20 17:00N 54°40' W 005°50'4 7.5
2017-Jun-20 16:27N 54°37' W 005°54'1 0.5
2017-Jun-20 15:04N 54°37' W 005°55'0 0.0
2017-Jun-20 14:37N 54°37' W 005°55'0 0.0
2017-Jun-20 13:59N 54°37' W 005°55'0 0.0
2017-Jun-20 13:26N 54°37' W 005°55'0 0.0
2017-Jun-20 12:56N 54°37' W 005°55'0 0.0
2017-Jun-20 12:26N 54°37' W 005°55'0 0.0
2017-Jun-20 11:56N 54°37' W 005°55'0 0.0
2017-Jun-20 11:26N 54°37' W 005°55'0 0.0
2017-Jun-20 10:59N 54°37' W 005°55'0 0.0
2017-Jun-20 10:30N 54°37' W 005°55'0 0.0
2017-Jun-20 09:58N 54°37' W 005°55'0 0.0
2017-Jun-20 09:22N 54°37' W 005°55'0 0.0
2017-Jun-20 08:55N 54°37' W 005°55'0 0.0
2017-Jun-20 08:24N 54°37' W 005°55'0 0.0
2017-Jun-20 08:00N 54°37' W 005°55'0 0.0
2017-Jun-20 07:30N 54°37' W 005°55'0 0.0
2017-Jun-20 07:00N 54°37' W 005°55'0 0.0
2017-Jun-20 06:30N 54°37' W 005°55'0 0.0
2017-Jun-20 06:00N 54°37' W 005°55'0 0.0
2017-Jun-20 05:30N 54°37' W 005°55'0 0.0
2017-Jun-20 05:00N 54°37' W 005°55'0 0.0
2017-Jun-20 04:30N 54°37' W 005°55'0 0.0
2017-Jun-20 03:58N 54°37' W 005°55'0 0.0
2017-Jun-20 03:26N 54°37' W 005°55'0 0.0
2017-Jun-20 02:58N 54°37' W 005°55'0 0.0
2017-Jun-20 02:28N 54°37' W 005°55'0 0.0
2017-Jun-20 01:58N 54°37' W 005°55'0 0.0
2017-Jun-20 01:28N 54°37' W 005°55'0 0.0
2017-Jun-20 00:58N 54°37' W 005°55'0 0.0
2017-Jun-20 00:28N 54°37' W 005°55'0 0.0
2017-Jun-20 00:00N 54°37' W 005°55'0 0.0
2017-Jun-19 23:26N 54°37' W 005°55'0 0.0
2017-Jun-19 22:57N 54°37' W 005°55'0 0.0
2017-Jun-19 22:30N 54°37' W 005°55'0 0.0
2017-Jun-19 21:56N 54°37' W 005°55'0 0.0
2017-Jun-19 21:26N 54°37' W 005°55'0 0.0
2017-Jun-19 20:57N 54°37' W 005°55'0 0.0
2017-Jun-19 19:07N 54°37' W 005°55'0 0.0
2017-Jun-19 18:46N 54°37' W 005°55'0 0.0
2017-Jun-19 18:29N 54°37' W 005°55'0 0.0
2017-Jun-19 17:55N 54°37' W 005°55'0 0.0
2017-Jun-19 17:27N 54°37' W 005°55'0 0.0
2017-Jun-19 16:57N 54°37' W 005°55'0 0.0
2017-Jun-19 16:23N 54°37' W 005°55'0 0.0
2017-Jun-19 15:43N 54°37' W 005°55'0 0.0
2017-Jun-19 15:30N 54°37' W 005°55'0 0.0
2017-Jun-19 14:52N 54°37' W 005°55'0 0.0
2017-Jun-19 14:28N 54°37' W 005°55'0 0.0
2017-Jun-19 13:23N 54°37' W 005°55'0 0.0
2017-Jun-19 12:47N 54°37' W 005°55'0 0.0
2017-Jun-19 12:29N 54°37' W 005°55'0 0.0
2017-Jun-19 11:51N 54°37' W 005°55'0 0.0
2017-Jun-19 11:30N 54°37' W 005°55'0 0.2
2017-Jun-19 10:59N 54°37' W 005°55'2 3.1
2017-Jun-19 10:29N 54°38' W 005°53'4 8.4
2017-Jun-19 10:00N 54°41' W 005°48'4 7.1
2017-Jun-19 09:30N 54°42' W 005°43'3 6.9
2017-Jun-19 09:00N 54°43' W 005°37'4 7.5
2017-Jun-19 08:30N 54°44' W 005°31'3 6.7
2017-Jun-19 08:00N 54°41' W 005°26'4 7.7
2017-Jun-19 07:31N 54°38' W 005°24'4 8.1
2017-Jun-19 07:00N 54°34' W 005°21'4 7.7
2017-Jun-19 06:30N 54°30' W 005°19'3 7.0
2017-Jun-19 06:01N 54°27' W 005°16'4 7.4
2017-Jun-19 05:31N 54°24' W 005°17'4 7.2
2017-Jun-19 05:01N 54°20' W 005°18'4 7.1
2017-Jun-19 04:30N 54°16' W 005°18'4 7.2
2017-Jun-19 04:00N 54°13' W 005°19'4 7.0
2017-Jun-19 03:26N 54°09' W 005°20'140 7.8
2017-Jun-18 09:36N 51°50' W 005°45'1 7.4
2017-Jun-18 09:27N 51°49' W 005°46'4 7.6
2017-Jun-18 08:53N 51°45' W 005°48'6 7.5
2017-Jun-18 08:07N 51°39' W 005°50'1 7.9
2017-Jun-18 07:57N 51°39' W 005°48'4 7.8
2017-Jun-18 07:26N 51°38' W 005°42'4 8.0
2017-Jun-18 06:58N 51°37' W 005°36'4 7.8
2017-Jun-18 06:31N 51°36' W 005°30'4 7.8
2017-Jun-18 06:01N 51°35' W 005°24'4 8.1
2017-Jun-18 05:30N 51°34' W 005°18'4 8.3
2017-Jun-18 05:00N 51°33' W 005°11'4 9.0
2017-Jun-18 04:31N 51°32' W 005°04'5 9.1
2017-Jun-18 04:01N 51°31' W 004°57'5 9.5
2017-Jun-18 03:30N 51°30' W 004°50'5 9.2
2017-Jun-18 03:01N 51°30' W 004°42'5 9.5
2017-Jun-18 02:29N 51°30' W 004°34'510.1
2017-Jun-18 02:01N 51°30' W 004°27'510.1
2017-Jun-18 01:30N 51°30' W 004°18'5 9.7
2017-Jun-18 01:01N 51°31' W 004°11'11 8.6
2017-Jun-17 23:45N 51°34' W 003°54'2 7.9
2017-Jun-17 23:30N 51°36' W 003°53'3 0.8
2017-Jun-17 19:50N 51°38' W 003°50'0 0.0
2017-Jun-17 19:17N 51°38' W 003°50'0 0.0
2017-Jun-16 21:37N 51°38' W 003°50'1 3.8
2017-Jun-16 21:25N 51°37' W 003°50'7 5.6
2017-Jun-16 20:08N 51°32' W 003°58'4 7.5
2017-Jun-16 19:38N 51°31' W 004°04'1 7.4
2017-Jun-16 19:30N 51°31' W 004°06'6 7.5
2017-Jun-16 18:42N 51°30' W 004°15'4 5.8
2017-Jun-16 18:01N 51°29' W 004°22'0 6.5
2017-Jun-16 18:00N 51°29' W 004°22'5 8.2
2017-Jun-16 17:26N 51°29' W 004°29'4 9.7
2017-Jun-16 17:00N 51°30' W 004°36'6 9.5
2017-Jun-16 16:23N 51°30' W 004°45'4 9.1
2017-Jun-16 15:56N 51°30' W 004°52'4 8.7
2017-Jun-16 15:30N 51°31' W 004°58'4 8.7
2017-Jun-16 15:00N 51°32' W 005°05'5 8.6
2017-Jun-16 14:29N 51°33' W 005°12'8 8.0
2017-Jun-16 13:26N 51°35' W 005°25'3 7.6
2017-Jun-16 13:00N 51°35' W 005°30'4 8.0
2017-Jun-16 12:28N 51°36' W 005°36'147 8.5
2017-Jun-15 19:12N 54°03' W 005°22'2 9.1
2017-Jun-15 19:00N 54°05' W 005°21'7 9.1
2017-Jun-15 18:13N 54°12' W 005°20'2 8.8
2017-Jun-15 18:00N 54°14' W 005°20'4 8.6
2017-Jun-15 17:30N 54°18' W 005°19'4 8.5
2017-Jun-15 17:00N 54°23' W 005°18'4 8.5
2017-Jun-15 16:30N 54°27' W 005°19'4 8.6
2017-Jun-15 16:00N 54°31' W 005°20'4 8.5
2017-Jun-15 15:30N 54°35' W 005°23'4 8.8
2017-Jun-15 15:00N 54°39' W 005°26'8 7.8
2017-Jun-15 14:00N 54°42' W 005°38'5 9.3
2017-Jun-15 13:30N 54°41' W 005°46'4 8.3
2017-Jun-15 13:00N 54°39' W 005°52'3 5.4
2017-Jun-15 12:30N 54°37' W 005°55'0 0.0
2017-Jun-15 12:00N 54°37' W 005°55'0 0.0
2017-Jun-15 11:30N 54°37' W 005°55'0 0.0
2017-Jun-15 10:57N 54°37' W 005°55'0 0.0
2017-Jun-15 10:30N 54°37' W 005°55'0 0.0
2017-Jun-15 09:56N 54°37' W 005°55'0 0.0
2017-Jun-15 09:30N 54°37' W 005°55'0 0.0
2017-Jun-15 08:56N 54°37' W 005°55'0 0.0
2017-Jun-15 08:30N 54°37' W 005°55'0 0.0
2017-Jun-15 07:56N 54°37' W 005°55'0 0.0
2017-Jun-15 07:15N 54°37' W 005°55'0 0.0
2017-Jun-15 06:53N 54°37' W 005°55'0 0.0
2017-Jun-15 06:29N 54°37' W 005°55'0 0.0
2017-Jun-15 05:55N 54°37' W 005°55'0 0.0
2017-Jun-15 05:28N 54°37' W 005°55'0 0.0
2017-Jun-15 04:53N 54°37' W 005°55'0 0.0
2017-Jun-15 04:06N 54°37' W 005°55'0 0.0
2017-Jun-15 03:45N 54°37' W 005°55'0 0.0
2017-Jun-15 03:30N 54°37' W 005°55'0 0.0
2017-Jun-15 02:57N 54°37' W 005°55'0 0.0
2017-Jun-15 02:30N 54°37' W 005°55'0 0.0
2017-Jun-15 01:57N 54°37' W 005°55'0 0.0
2017-Jun-15 01:24N 54°37' W 005°55'0 0.0
2017-Jun-15 00:51N 54°37' W 005°55'0 0.0
2017-Jun-15 00:30N 54°37' W 005°55'0 0.0
2017-Jun-15 00:00N 54°37' W 005°55'0 0.0
2017-Jun-14 23:30N 54°37' W 005°55'0 0.0
2017-Jun-14 23:00N 54°37' W 005°55'0 0.0
2017-Jun-14 22:30N 54°37' W 005°55'0 0.0
2017-Jun-14 21:55N 54°37' W 005°55'0 0.0
2017-Jun-14 21:28N 54°37' W 005°55'0 0.0
2017-Jun-14 20:59N 54°37' W 005°55'0 0.0
2017-Jun-14 20:29N 54°37' W 005°55'0 0.0
2017-Jun-14 19:59N 54°37' W 005°55'0 0.0
2017-Jun-14 19:29N 54°37' W 005°55'0 0.0
2017-Jun-14 18:59N 54°37' W 005°55'0 0.0
2017-Jun-14 18:29N 54°37' W 005°55'0 0.0
2017-Jun-14 17:56N 54°37' W 005°55'0 0.0
2017-Jun-14 17:29N 54°37' W 005°55'0 0.0
2017-Jun-14 16:59N 54°37' W 005°55'0 0.0
2017-Jun-14 16:30N 54°37' W 005°55'0 0.0
2017-Jun-14 15:55N 54°37' W 005°55'0 0.0
2017-Jun-14 15:28N 54°37' W 005°55'0 0.0
2017-Jun-14 14:58N 54°37' W 005°55'5 4.7
2017-Jun-14 14:00N 54°40' W 005°50'4 7.4
2017-Jun-14 13:30N 54°42' W 005°44'2 3.1
2017-Jun-14 13:00N 54°41' W 005°42'0 0.0
2017-Jun-14 12:30N 54°41' W 005°42'0 0.0
2017-Jun-14 12:00N 54°41' W 005°42'0 0.0
2017-Jun-14 11:28N 54°41' W 005°42'0 0.0
2017-Jun-14 10:58N 54°41' W 005°42'0 0.0
2017-Jun-14 10:28N 54°41' W 005°42'0 0.1
2017-Jun-14 09:58N 54°41' W 005°42'0 0.0
2017-Jun-14 09:29N 54°41' W 005°42'0 0.0
2017-Jun-14 08:58N 54°41' W 005°42'0 0.1
2017-Jun-14 08:28N 54°41' W 005°42'0 0.0
2017-Jun-14 07:58N 54°41' W 005°42'0 0.0
2017-Jun-14 07:28N 54°41' W 005°42'0 0.0
2017-Jun-14 06:58N 54°41' W 005°42'0 0.0
2017-Jun-14 06:28N 54°41' W 005°42'0 0.0
2017-Jun-14 05:58N 54°41' W 005°42'0 0.0
2017-Jun-14 05:28N 54°41' W 005°42'0 0.0
2017-Jun-14 04:58N 54°41' W 005°42'0 0.0
2017-Jun-14 04:28N 54°41' W 005°42'1 1.5
2017-Jun-14 04:00N 54°42' W 005°41'2 4.2
2017-Jun-14 03:30N 54°42' W 005°37'3 6.2
2017-Jun-14 03:01N 54°43' W 005°32'3 5.2
2017-Jun-14 02:30N 54°42' W 005°28'3 6.0
2017-Jun-14 02:00N 54°39' W 005°26'3 5.4
2017-Jun-14 01:30N 54°37' W 005°24'2 5.0
2017-Jun-14 01:00N 54°34' W 005°22'3 5.5
2017-Jun-14 00:30N 54°32' W 005°20'3 5.5
2017-Jun-14 00:00N 54°29' W 005°18'3 5.3
2017-Jun-13 23:30N 54°27' W 005°16'3 5.4
2017-Jun-13 23:00N 54°24' W 005°16'3 5.9
2017-Jun-13 22:30N 54°21' W 005°17'3 5.6
2017-Jun-13 21:59N 54°18' W 005°17'4 7.9
2017-Jun-13 21:30N 54°15' W 005°18'158 8.4
2017-Jun-13 02:42N 51°37' W 005°32'2 7.5
2017-Jun-13 02:30N 51°36' W 005°29'4 7.7
2017-Jun-13 02:00N 51°35' W 005°23'4 8.0
2017-Jun-13 01:30N 51°34' W 005°17'4 8.2
2017-Jun-13 01:01N 51°33' W 005°11'4 8.5
2017-Jun-13 00:30N 51°32' W 005°04'5 9.2
2017-Jun-13 00:00N 51°31' W 004°57'  
Track history (hours):
 
Tides and Currents Weather Stations Pressure Air Temp Water Temp Dewpoint Dewpoint Depression Visibility Wind Speed Wind Dir Waves Ship Positions

Sea Thames

Last reported at 2017-Jun-22 20:36 UTC. Time now 2017-Jun-22 22:32 UTC.
Position N 55°11' W 005°56'.

Length 87 m; draft 4 m.

Type: Cargo ship. MMSI: 304933000.

Date/timePositionNaut miles runAvg speedWind from/ knotsBaromVisibWave heightAir tempDewpointWater temp
2017-Jun-22 20:36N 55°11' W 005°56'411.6
2017-Jun-22 20:17N 55°14' W 005°60'412.1
2017-Jun-22 19:59N 55°17' W 006°04'511.2
2017-Jun-22 19:30N 55°21' W 006°11'510.3
2017-Jun-22 19:01N 55°20' W 006°19'510.5
2017-Jun-22 18:30N 55°18' W 006°28'510.0
2017-Jun-22 18:00N 55°15' W 006°36'5 9.8
2017-Jun-22 17:30N 55°12' W 006°43'3 6.2
2017-Jun-22 17:00N 55°10' W 006°46'2 0.1
2017-Jun-21 05:50N 55°09' W 006°42'2 6.1
2017-Jun-21 05:30N 55°10' W 006°46'2 3.2
2017-Jun-21 05:00N 55°11' W 006°44'3 6.7
2017-Jun-21 04:31N 55°14' W 006°40'3 6.4
2017-Jun-21 04:00N 55°16' W 006°36'3 6.4
2017-Jun-21 03:30N 55°18' W 006°31'3 6.1
2017-Jun-21 03:00N 55°20' W 006°27'3 5.8
2017-Jun-21 02:30N 55°21' W 006°23'3 5.5
2017-Jun-21 01:59N 55°23' W 006°19'3 6.3
2017-Jun-21 01:30N 55°25' W 006°15'3 6.2
2017-Jun-21 01:00N 55°25' W 006°10'3 6.3
2017-Jun-21 00:30N 55°24' W 006°04'3 6.2
2017-Jun-21 00:00N 55°22' W 006°01'4 7.4
2017-Jun-20 23:29N 55°19' W 005°57'4 8.2
2017-Jun-20 22:59N 55°15' W 005°54'4 7.6
2017-Jun-20 22:29N 55°12' W 005°51'6 7.0
2017-Jun-20 21:39N 55°06' W 005°48'1 7.1
2017-Jun-20 21:30N 55°05' W 005°47'4 7.1
2017-Jun-20 21:00N 55°02' W 005°45'3 6.5
2017-Jun-20 20:30N 54°59' W 005°42'3 6.4
2017-Jun-20 20:00N 54°56' W 005°41'4 7.2
2017-Jun-20 19:30N 54°52' W 005°40'3 6.9
2017-Jun-20 19:00N 54°49' W 005°38'3 6.3
2017-Jun-20 18:30N 54°46' W 005°38'3 6.1
2017-Jun-20 18:00N 54°43' W 005°39'3 6.5
2017-Jun-20 17:30N 54°42' W 005°45'3 6.5
2017-Jun-20 17:00N 54°40' W 005°50'4 7.5
2017-Jun-20 16:27N 54°37' W 005°54'1 0.5
2017-Jun-20 15:04N 54°37' W 005°55'0 0.0
2017-Jun-20 14:37N 54°37' W 005°55'0 0.0
2017-Jun-20 13:59N 54°37' W 005°55'0 0.0
2017-Jun-20 13:26N 54°37' W 005°55'0 0.0
2017-Jun-20 12:56N 54°37' W 005°55'0 0.0
2017-Jun-20 12:26N 54°37' W 005°55'0 0.0
2017-Jun-20 11:56N 54°37' W 005°55'0 0.0
2017-Jun-20 11:26N 54°37' W 005°55'0 0.0
2017-Jun-20 10:59N 54°37' W 005°55'0 0.0
2017-Jun-20 10:30N 54°37' W 005°55'0 0.0
2017-Jun-20 09:58N 54°37' W 005°55'0 0.0
2017-Jun-20 09:22N 54°37' W 005°55'0 0.0
2017-Jun-20 08:55N 54°37' W 005°55'0 0.0
2017-Jun-20 08:24N 54°37' W 005°55'0 0.0
2017-Jun-20 08:00N 54°37' W 005°55'0 0.0
2017-Jun-20 07:30N 54°37' W 005°55'0 0.0
2017-Jun-20 07:00N 54°37' W 005°55'0 0.0
2017-Jun-20 06:30N 54°37' W 005°55'0 0.0
2017-Jun-20 06:00N 54°37' W 005°55'0 0.0
2017-Jun-20 05:30N 54°37' W 005°55'0 0.0
2017-Jun-20 05:00N 54°37' W 005°55'0 0.0
2017-Jun-20 04:30N 54°37' W 005°55'0 0.0
2017-Jun-20 03:58N 54°37' W 005°55'0 0.0
2017-Jun-20 03:26N 54°37' W 005°55'0 0.0
2017-Jun-20 02:58N 54°37' W 005°55'0 0.0
2017-Jun-20 02:28N 54°37' W 005°55'0 0.0
2017-Jun-20 01:58N 54°37' W 005°55'0 0.0
2017-Jun-20 01:28N 54°37' W 005°55'0 0.0
2017-Jun-20 00:58N 54°37' W 005°55'0 0.0
2017-Jun-20 00:28N 54°37' W 005°55'0 0.0
2017-Jun-20 00:00N 54°37' W 005°55'0 0.0
2017-Jun-19 23:26N 54°37' W 005°55'0 0.0
2017-Jun-19 22:57N 54°37' W 005°55'0 0.0
2017-Jun-19 22:30N 54°37' W 005°55'0 0.0
2017-Jun-19 21:56N 54°37' W 005°55'0 0.0
2017-Jun-19 21:26N 54°37' W 005°55'0 0.0
2017-Jun-19 20:57N 54°37' W 005°55'0 0.0
2017-Jun-19 19:07N 54°37' W 005°55'0 0.0
2017-Jun-19 18:46N 54°37' W 005°55'0 0.0
2017-Jun-19 18:29N 54°37' W 005°55'0 0.0
2017-Jun-19 17:55N 54°37' W 005°55'0 0.0
2017-Jun-19 17:27N 54°37' W 005°55'0 0.0
2017-Jun-19 16:57N 54°37' W 005°55'0 0.0
2017-Jun-19 16:23N 54°37' W 005°55'0 0.0
2017-Jun-19 15:43N 54°37' W 005°55'0 0.0
2017-Jun-19 15:30N 54°37' W 005°55'0 0.0
2017-Jun-19 14:52N 54°37' W 005°55'0 0.0
2017-Jun-19 14:28N 54°37' W 005°55'0 0.0
2017-Jun-19 13:23N 54°37' W 005°55'0 0.0
2017-Jun-19 12:47N 54°37' W 005°55'0 0.0
2017-Jun-19 12:29N 54°37' W 005°55'0 0.0
2017-Jun-19 11:51N 54°37' W 005°55'0 0.0
2017-Jun-19 11:30N 54°37' W 005°55'0 0.2
2017-Jun-19 10:59N 54°37' W 005°55'2 3.1
2017-Jun-19 10:29N 54°38' W 005°53'4 8.4
2017-Jun-19 10:00N 54°41' W 005°48'4 7.1
2017-Jun-19 09:30N 54°42' W 005°43'3 6.9
2017-Jun-19 09:00N 54°43' W 005°37'4 7.5
2017-Jun-19 08:30N 54°44' W 005°31'3 6.7
2017-Jun-19 08:00N 54°41' W 005°26'4 7.7
2017-Jun-19 07:31N 54°38' W 005°24'4 8.1
2017-Jun-19 07:00N 54°34' W 005°21'4 7.7
2017-Jun-19 06:30N 54°30' W 005°19'3 7.0
2017-Jun-19 06:01N 54°27' W 005°16'4 7.4
2017-Jun-19 05:31N 54°24' W 005°17'4 7.2
2017-Jun-19 05:01N 54°20' W 005°18'4 7.1
2017-Jun-19 04:30N 54°16' W 005°18'4 7.2
2017-Jun-19 04:00N 54°13' W 005°19'4 7.0
2017-Jun-19 03:26N 54°09' W 005°20'140 7.8
2017-Jun-18 09:36N 51°50' W 005°45'1 7.4
2017-Jun-18 09:27N 51°49' W 005°46'4 7.6
2017-Jun-18 08:53N 51°45' W 005°48'6 7.5
2017-Jun-18 08:07N 51°39' W 005°50'1 7.9
2017-Jun-18 07:57N 51°39' W 005°48'4 7.8
2017-Jun-18 07:26N 51°38' W 005°42'4 8.0
2017-Jun-18 06:58N 51°37' W 005°36'4 7.8
2017-Jun-18 06:31N 51°36' W 005°30'4 7.8
2017-Jun-18 06:01N 51°35' W 005°24'4 8.1
2017-Jun-18 05:30N 51°34' W 005°18'4 8.3
2017-Jun-18 05:00N 51°33' W 005°11'4 9.0
2017-Jun-18 04:31N 51°32' W 005°04'5 9.1
2017-Jun-18 04:01N 51°31' W 004°57'5 9.5
2017-Jun-18 03:30N 51°30' W 004°50'5 9.2
2017-Jun-18 03:01N 51°30' W 004°42'5 9.5
2017-Jun-18 02:29N 51°30' W 004°34'510.1
2017-Jun-18 02:01N 51°30' W 004°27'510.1
2017-Jun-18 01:30N 51°30' W 004°18'5 9.7
2017-Jun-18 01:01N 51°31' W 004°11'11 8.6
2017-Jun-17 23:45N 51°34' W 003°54'2 7.9
2017-Jun-17 23:30N 51°36' W 003°53'3 0.8
2017-Jun-17 19:50N 51°38' W 003°50'0 0.0
2017-Jun-17 19:17N 51°38' W 003°50'0 0.0
2017-Jun-16 21:37N 51°38' W 003°50'1 3.8
2017-Jun-16 21:25N 51°37' W 003°50'7 5.6
2017-Jun-16 20:08N 51°32' W 003°58'4 7.5
2017-Jun-16 19:38N 51°31' W 004°04'1 7.4
2017-Jun-16 19:30N 51°31' W 004°06'6 7.5
2017-Jun-16 18:42N 51°30' W 004°15'4 5.8
2017-Jun-16 18:01N 51°29' W 004°22'0 6.5
2017-Jun-16 18:00N 51°29' W 004°22'5 8.2
2017-Jun-16 17:26N 51°29' W 004°29'4 9.7
2017-Jun-16 17:00N 51°30' W 004°36'6 9.5
2017-Jun-16 16:23N 51°30' W 004°45'4 9.1
2017-Jun-16 15:56N 51°30' W 004°52'4 8.7
2017-Jun-16 15:30N 51°31' W 004°58'4 8.7
2017-Jun-16 15:00N 51°32' W 005°05'5 8.6
2017-Jun-16 14:29N 51°33' W 005°12'8 8.0
2017-Jun-16 13:26N 51°35' W 005°25'3 7.6
2017-Jun-16 13:00N 51°35' W 005°30'4 8.0
2017-Jun-16 12:28N 51°36' W 005°36'147 8.5
2017-Jun-15 19:12N 54°03' W 005°22'2 9.1
2017-Jun-15 19:00N 54°05' W 005°21'7 9.1
2017-Jun-15 18:13N 54°12' W 005°20'2 8.8
2017-Jun-15 18:00N 54°14' W 005°20'4 8.6
2017-Jun-15 17:30N 54°18' W 005°19'4 8.5
2017-Jun-15 17:00N 54°23' W 005°18'4 8.5
2017-Jun-15 16:30N 54°27' W 005°19'4 8.6
2017-Jun-15 16:00N 54°31' W 005°20'4 8.5
2017-Jun-15 15:30N 54°35' W 005°23'4 8.8
2017-Jun-15 15:00N 54°39' W 005°26'8 7.8
2017-Jun-15 14:00N 54°42' W 005°38'5 9.3
2017-Jun-15 13:30N 54°41' W 005°46'4 8.3
2017-Jun-15 13:00N 54°39' W 005°52'3 5.4
2017-Jun-15 12:30N 54°37' W 005°55'0 0.0
2017-Jun-15 12:00N 54°37' W 005°55'0 0.0
2017-Jun-15 11:30N 54°37' W 005°55'0 0.0
2017-Jun-15 10:57N 54°37' W 005°55'0 0.0
2017-Jun-15 10:30N 54°37' W 005°55'0 0.0
2017-Jun-15 09:56N 54°37' W 005°55'0 0.0
2017-Jun-15 09:30N 54°37' W 005°55'0 0.0
2017-Jun-15 08:56N 54°37' W 005°55'0 0.0
2017-Jun-15 08:30N 54°37' W 005°55'0 0.0
2017-Jun-15 07:56N 54°37' W 005°55'0 0.0
2017-Jun-15 07:15N 54°37' W 005°55'0 0.0
2017-Jun-15 06:53N 54°37' W 005°55'0 0.0
2017-Jun-15 06:29N 54°37' W 005°55'0 0.0
2017-Jun-15 05:55N 54°37' W 005°55'0 0.0
2017-Jun-15 05:28N 54°37' W 005°55'0 0.0
2017-Jun-15 04:53N 54°37' W 005°55'0 0.0
2017-Jun-15 04:06N 54°37' W 005°55'0 0.0
2017-Jun-15 03:45N 54°37' W 005°55'0 0.0
2017-Jun-15 03:30N 54°37' W 005°55'0 0.0
2017-Jun-15 02:57N 54°37' W 005°55'0 0.0
2017-Jun-15 02:30N 54°37' W 005°55'0 0.0
2017-Jun-15 01:57N 54°37' W 005°55'0 0.0
2017-Jun-15 01:24N 54°37' W 005°55'0 0.0
2017-Jun-15 00:51N 54°37' W 005°55'0 0.0
2017-Jun-15 00:30N 54°37' W 005°55'0 0.0
2017-Jun-15 00:00N 54°37' W 005°55'0 0.0
2017-Jun-14 23:30N 54°37' W 005°55'0 0.0
2017-Jun-14 23:00N 54°37' W 005°55'0 0.0
2017-Jun-14 22:30N 54°37' W 005°55'0 0.0
2017-Jun-14 21:55N 54°37' W 005°55'0 0.0
2017-Jun-14 21:28N 54°37' W 005°55'0 0.0
2017-Jun-14 20:59N 54°37' W 005°55'0 0.0
2017-Jun-14 20:29N 54°37' W 005°55'0 0.0
2017-Jun-14 19:59N 54°37' W 005°55'0 0.0
2017-Jun-14 19:29N 54°37' W 005°55'0 0.0
2017-Jun-14 18:59N 54°37' W 005°55'0 0.0
2017-Jun-14 18:29N 54°37' W 005°55'0 0.0
2017-Jun-14 17:56N 54°37' W 005°55'0 0.0
2017-Jun-14 17:29N 54°37' W 005°55'0 0.0
2017-Jun-14 16:59N 54°37' W 005°55'0 0.0
2017-Jun-14 16:30N 54°37' W 005°55'0 0.0
2017-Jun-14 15:55N 54°37' W 005°55'0 0.0
2017-Jun-14 15:28N 54°37' W 005°55'0 0.0
2017-Jun-14 14:58N 54°37' W 005°55'5 4.7
2017-Jun-14 14:00N 54°40' W 005°50'4 7.4
2017-Jun-14 13:30N 54°42' W 005°44'2 3.1
2017-Jun-14 13:00N 54°41' W 005°42'0 0.0
2017-Jun-14 12:30N 54°41' W 005°42'0 0.0
2017-Jun-14 12:00N 54°41' W 005°42'0 0.0
2017-Jun-14 11:28N 54°41' W 005°42'0 0.0
2017-Jun-14 10:58N 54°41' W 005°42'0 0.0
2017-Jun-14 10:28N 54°41' W 005°42'0 0.1
2017-Jun-14 09:58N 54°41' W 005°42'0 0.0
2017-Jun-14 09:29N 54°41' W 005°42'0 0.0
2017-Jun-14 08:58N 54°41' W 005°42'0 0.1
2017-Jun-14 08:28N 54°41' W 005°42'0 0.0
2017-Jun-14 07:58N 54°41' W 005°42'0 0.0
2017-Jun-14 07:28N 54°41' W 005°42'0 0.0
2017-Jun-14 06:58N 54°41' W 005°42'0 0.0
2017-Jun-14 06:28N 54°41' W 005°42'0 0.0
2017-Jun-14 05:58N 54°41' W 005°42'0 0.0
2017-Jun-14 05:28N 54°41' W 005°42'0 0.0
2017-Jun-14 04:58N 54°41' W 005°42'0 0.0
2017-Jun-14 04:28N 54°41' W 005°42'1 1.5
2017-Jun-14 04:00N 54°42' W 005°41'2 4.2
2017-Jun-14 03:30N 54°42' W 005°37'3 6.2
2017-Jun-14 03:01N 54°43' W 005°32'3 5.2
2017-Jun-14 02:30N 54°42' W 005°28'3 6.0
2017-Jun-14 02:00N 54°39' W 005°26'3 5.4
2017-Jun-14 01:30N 54°37' W 005°24'2 5.0
2017-Jun-14 01:00N 54°34' W 005°22'3 5.5
2017-Jun-14 00:30N 54°32' W 005°20'3 5.5
2017-Jun-14 00:00N 54°29' W 005°18'3 5.3
2017-Jun-13 23:30N 54°27' W 005°16'3 5.4
2017-Jun-13 23:00N 54°24' W 005°16'3 5.9
2017-Jun-13 22:30N 54°21' W 005°17'3 5.6
2017-Jun-13 21:59N 54°18' W 005°17'4 7.9
2017-Jun-13 21:30N 54°15' W 005°18'158 8.4
2017-Jun-13 02:42N 51°37' W 005°32'2 7.5
2017-Jun-13 02:30N 51°36' W 005°29'4 7.7
2017-Jun-13 02:00N 51°35' W 005°23'4 8.0
2017-Jun-13 01:30N 51°34' W 005°17'4 8.2
2017-Jun-13 01:01N 51°33' W 005°11'4 8.5
2017-Jun-13 00:30N 51°32' W 005°04'5 9.2
2017-Jun-13 00:00N 51°31' W 004°57'  

Dump ship's entire track history